الصفحة الرئيسية
METAR-TAF:

METAR-TAF

مطار :

أوشويا, الأرجنتين

دائرة عرض: 54-48S, خط طول: 068-19W, ارتفاع: 16 متر

مراقبة الطقس الحالي

تاريخ ووقت الإصدار 54 دقيقة قبل الساعة 12:00UTC
ريح 25 عقدة من الجنوب الغربي تتزايد حتى 35 عقدة
درجة الحرارة 8°درجة مئوية
الرطوبة 66%
ضغط 1001 hPa
الرؤية 10 كم أو أكثر
غيوم مفككة على ارتفاع 3500 قدم
زخات في الجوار

METAR: SAWH 201200Z 23025G35KT 9999 VCSH BKN035 08/02 Q1001

زمن: 09:54 (12:54 UTC)

توقعات

تاريخ ووقت الإصدار 1ساعة و 54 دقيقة قبل الساعة 11:00UTC
التوقعات صالحة من20 الساعة 12 UTC إلى 21 الساعة 12 UTC
ريح 20 عقدة من الغرب/الجنوب الغربي تتزايد حتى 30 عقدة
الرؤية 10 كم أو أكثر
غيوم مفككة على ارتفاع 3000 قدم
غيوم متفرقة على ارتفاع 8000 قدم
زخات من الأمطار الخفيفة
أصبح
من 20 الساعة 16 UTC إلى 20 الساعة 18 UTC
ريح 15 عقدة من الغرب/الشمال الغربي تتزايد حتى 25 عقدة
أصبح
من 20 الساعة 23 UTC إلى 21 الساعة 01 UTC
ريح 25 عقدة من الغرب/الشمال الغربي تتزايد حتى 35 عقدة

TAF: SAWH 201100Z 2012/2112 25020G30KT 9999 -SHRA BKN030 SCT080 TX15/2019Z TN05/2119Z BECMG 2016/2018 29015G25KT BECMG 2023/2101 29025G35KT

أرصاد الطقس والتوقعات من أكثر من 4000 مطار (تقارير الطقس للمطار METAR والتنبؤ بالطقس بالمطارTAF).

المحطات المتاحة هي النقط الصفراء والحمراء على الخريطة.

حرك المؤشر فوق النقطة لمعرفة اسم المحطة.

ثم انقر لمعرفة أرصاد وتوقعات الطقس.

لتغيير الخارطة: اضغط على الأزرار الخضراء مع رمز الصليب الأسود للتكبير. على الزر الأخضر مع شرطة للتصغير، أو على الأسهم الخضراء للخرائط المجاورة.


METAR-TAF: